sensor_id;sensor_type;location;lat;lon;timestamp;temperature;humidity
22666;DHT22;11499;49.486;11.104;2023-03-01T00:01:42;-0.60;84.10
22666;DHT22;11499;49.486;11.104;2023-03-01T00:04:07;-0.60;84.20
22666;DHT22;11499;49.486;11.104;2023-03-01T00:06:33;-0.60;84.10
22666;DHT22;11499;49.486;11.104;2023-03-01T00:08:58;-0.60;84.30
22666;DHT22;11499;49.486;11.104;2023-03-01T00:11:29;-0.70;84.20
22666;DHT22;11499;49.486;11.104;2023-03-01T00:13:57;-0.70;84.20
22666;DHT22;11499;49.486;11.104;2023-03-01T00:16:30;-0.70;84.20
22666;DHT22;11499;49.486;11.104;2023-03-01T00:18:56;-0.70;84.60
22666;DHT22;11499;49.486;11.104;2023-03-01T00:24:33;-0.70;84.70
22666;DHT22;11499;49.486;11.104;2023-03-01T00:26:59;-0.80;84.70
22666;DHT22;11499;49.486;11.104;2023-03-01T00:29:25;-0.70;84.70
22666;DHT22;11499;49.486;11.104;2023-03-01T00:31:50;-0.70;84.60
22666;DHT22;11499;49.486;11.104;2023-03-01T00:34:16;-0.70;84.70
22666;DHT22;11499;49.486;11.104;2023-03-01T00:36:41;-0.70;84.70
22666;DHT22;11499;49.486;11.104;2023-03-01T00:39:11;-0.70;84.70
22666;DHT22;11499;49.486;11.104;2023-03-01T00:41:37;-0.70;84.70
22666;DHT22;11499;49.486;11.104;2023-03-01T00:44:03;-0.70;84.50
22666;DHT22;11499;49.486;11.104;2023-03-01T00:46:28;-0.80;84.70
22666;DHT22;11499;49.486;11.104;2023-03-01T00:51:37;-0.70;84.60
22666;DHT22;11499;49.486;11.104;2023-03-01T00:54:02;-0.70;84.60
22666;DHT22;11499;49.486;11.104;2023-03-01T00:56:29;-0.70;84.60
22666;DHT22;11499;49.486;11.104;2023-03-01T00:58:55;-0.80;84.50
22666;DHT22;11499;49.486;11.104;2023-03-01T01:01:22;-0.70;84.60
22666;DHT22;11499;49.486;11.104;2023-03-01T01:03:52;-0.70;84.60
22666;DHT22;11499;49.486;11.104;2023-03-01T01:06:27;-0.70;84.60
22666;DHT22;11499;49.486;11.104;2023-03-01T01:08:54;-0.80;84.60
22666;DHT22;11499;49.486;11.104;2023-03-01T01:11:21;-0.80;84.70
22666;DHT22;11499;49.486;11.104;2023-03-01T01:13:47;-0.80;84.90
22666;DHT22;11499;49.486;11.104;2023-03-01T01:16:14;-0.80;84.70
22666;DHT22;11499;49.486;11.104;2023-03-01T01:21:49;-0.80;84.60
22666;DHT22;11499;49.486;11.104;2023-03-01T01:24:15;-0.60;84.90
22666;DHT22;11499;49.486;11.104;2023-03-01T01:26:42;-0.50;84.90
22666;DHT22;11499;49.486;11.104;2023-03-01T01:29:08;-0.80;84.70
22666;DHT22;11499;49.486;11.104;2023-03-01T01:31:35;-0.90;84.60
22666;DHT22;11499;49.486;11.104;2023-03-01T01:34:02;-0.90;84.50
22666;DHT22;11499;49.486;11.104;2023-03-01T01:36:28;-0.90;84.40
22666;DHT22;11499;49.486;11.104;2023-03-01T01:38:53;-0.90;84.40
22666;DHT22;11499;49.486;11.104;2023-03-01T01:41:20;-0.90;84.50
22666;DHT22;11499;49.486;11.104;2023-03-01T01:43:48;-0.80;84.60
22666;DHT22;11499;49.486;11.104;2023-03-01T01:49:03;-0.90;84.60
22666;DHT22;11499;49.486;11.104;2023-03-01T01:51:35;-0.90;84.60
22666;DHT22;11499;49.486;11.104;2023-03-01T01:54:08;-0.90;84.60
22666;DHT22;11499;49.486;11.104;2023-03-01T01:56:36;-0.90;84.90
22666;DHT22;11499;49.486;11.104;2023-03-01T01:59:02;-1.00;84.90
22666;DHT22;11499;49.486;11.104;2023-03-01T02:01:27;-1.00;84.90
22666;DHT22;11499;49.486;11.104;2023-03-01T02:03:53;-1.00;85.00
22666;DHT22;11499;49.486;11.104;2023-03-01T02:06:26;-1.00;85.00
22666;DHT22;11499;49.486;11.104;2023-03-01T02:08:57;-1.00;85.10
22666;DHT22;11499;49.486;11.104;2023-03-01T02:11:23;-1.10;85.20
22666;DHT22;11499;49.486;11.104;2023-03-01T02:16:25;-1.10;85.30
22666;DHT22;11499;49.486;11.104;2023-03-01T02:18:51;-1.10;85.40
22666;DHT22;11499;49.486;11.104;2023-03-01T02:21:30;-1.10;85.20
22666;DHT22;11499;49.486;11.104;2023-03-01T02:24:07;-1.10;85.30
22666;DHT22;11499;49.486;11.104;2023-03-01T02:26:42;-1.10;85.40
22666;DHT22;11499;49.486;11.104;2023-03-01T02:29:10;-1.10;85.30
22666;DHT22;11499;49.486;11.104;2023-03-01T02:31:35;-1.10;85.40
22666;DHT22;11499;49.486;11.104;2023-03-01T02:34:15;-1.20;85.40
22666;DHT22;11499;49.486;11.104;2023-03-01T02:36:52;-1.10;85.40
22666;DHT22;11499;49.486;11.104;2023-03-01T02:39:24;-1.20;85.50
22666;DHT22;11499;49.486;11.104;2023-03-01T02:44:09;-1.20;85.70
22666;DHT22;11499;49.486;11.104;2023-03-01T02:46:43;-1.20;85.80
22666;DHT22;11499;49.486;11.104;2023-03-01T02:49:27;-1.20;86.00
22666;DHT22;11499;49.486;11.104;2023-03-01T02:57:15;-1.00;86.50
22666;DHT22;11499;49.486;11.104;2023-03-01T02:59:41;-1.30;86.30
22666;DHT22;11499;49.486;11.104;2023-03-01T03:02:23;-1.30;86.40
22666;DHT22;11499;49.486;11.104;2023-03-01T03:05:07;-1.40;86.20
22666;DHT22;11499;49.486;11.104;2023-03-01T03:10:37;-1.40;86.40
22666;DHT22;11499;49.486;11.104;2023-03-01T03:13:06;-1.50;86.50
22666;DHT22;11499;49.486;11.104;2023-03-01T03:15:32;-1.50;86.30
22666;DHT22;11499;49.486;11.104;2023-03-01T03:18:02;-1.50;86.50
22666;DHT22;11499;49.486;11.104;2023-03-01T03:20:29;-1.50;86.60
22666;DHT22;11499;49.486;11.104;2023-03-01T03:22:56;-1.60;86.70
22666;DHT22;11499;49.486;11.104;2023-03-01T03:25:22;-1.40;87.00
22666;DHT22;11499;49.486;11.104;2023-03-01T03:27:49;-1.30;87.10
22666;DHT22;11499;49.486;11.104;2023-03-01T03:30:23;-1.40;87.20
22666;DHT22;11499;49.486;11.104;2023-03-01T03:32:49;-1.60;87.00
22666;DHT22;11499;49.486;11.104;2023-03-01T03:37:48;-1.60;86.90
22666;DHT22;11499;49.486;11.104;2023-03-01T03:40:43;-1.60;86.90
22666;DHT22;11499;49.486;11.104;2023-03-01T03:43:12;-1.60;86.90
22666;DHT22;11499;49.486;11.104;2023-03-01T03:45:38;-1.60;86.80
22666;DHT22;11499;49.486;11.104;2023-03-01T03:48:05;-1.50;86.80
22666;DHT22;11499;49.486;11.104;2023-03-01T03:50:32;-1.50;86.60
22666;DHT22;11499;49.486;11.104;2023-03-01T03:52:57;-1.50;86.60
22666;DHT22;11499;49.486;11.104;2023-03-01T03:55:23;-1.60;86.40
22666;DHT22;11499;49.486;11.104;2023-03-01T03:57:53;-1.60;86.20
22666;DHT22;11499;49.486;11.104;2023-03-01T04:00:20;-1.60;86.40
22666;DHT22;11499;49.486;11.104;2023-03-01T04:04:33;-1.60;86.50
22666;DHT22;11499;49.486;11.104;2023-03-01T04:06:59;-1.60;86.50
22666;DHT22;11499;49.486;11.104;2023-03-01T04:09:25;-1.50;86.20
22666;DHT22;11499;49.486;11.104;2023-03-01T04:11:50;-1.50;85.80
22666;DHT22;11499;49.486;11.104;2023-03-01T04:14:15;-1.50;85.70
22666;DHT22;11499;49.486;11.104;2023-03-01T04:16:41;-1.50;85.50
22666;DHT22;11499;49.486;11.104;2023-03-01T04:19:06;-1.50;85.70
22666;DHT22;11499;49.486;11.104;2023-03-01T04:21:32;-1.50;85.70
22666;DHT22;11499;49.486;11.104;2023-03-01T04:23:57;-1.50;85.60
22666;DHT22;11499;49.486;11.104;2023-03-01T04:26:23;-1.50;85.60
22666;DHT22;11499;49.486;11.104;2023-03-01T04:31:32;-1.50;85.70
22666;DHT22;11499;49.486;11.104;2023-03-01T04:33:57;-1.60;85.70
22666;DHT22;11499;49.486;11.104;2023-03-01T04:36:25;-1.50;86.40
22666;DHT22;11499;49.486;11.104;2023-03-01T04:38:51;-1.50;85.60
22666;DHT22;11499;49.486;11.104;2023-03-01T04:41:18;-1.60;85.40
22666;DHT22;11499;49.486;11.104;2023-03-01T04:43:44;-1.60;85.50
22666;DHT22;11499;49.486;11.104;2023-03-01T04:46:14;-1.60;85.70
22666;DHT22;11499;49.486;11.104;2023-03-01T04:48:41;-1.60;85.80
22666;DHT22;11499;49.486;11.104;2023-03-01T04:51:07;-1.60;85.70
22666;DHT22;11499;49.486;11.104;2023-03-01T04:53:35;-1.60;85.60
22666;DHT22;11499;49.486;11.104;2023-03-01T04:58:41;-1.60;86.50
22666;DHT22;11499;49.486;11.104;2023-03-01T05:01:15;-1.70;86.30
22666;DHT22;11499;49.486;11.104;2023-03-01T05:03:47;-1.70;86.10
22666;DHT22;11499;49.486;11.104;2023-03-01T05:06:13;-1.70;86.40
22666;DHT22;11499;49.486;11.104;2023-03-01T05:08:39;-1.70;86.10
22666;DHT22;11499;49.486;11.104;2023-03-01T05:11:05;-1.70;86.10
22666;DHT22;11499;49.486;11.104;2023-03-01T05:13:31;-1.80;86.40
22666;DHT22;11499;49.486;11.104;2023-03-01T05:15:59;-1.80;86.40
22666;DHT22;11499;49.486;11.104;2023-03-01T05:18:27;-1.80;86.60
22666;DHT22;11499;49.486;11.104;2023-03-01T05:20:54;-1.80;86.60
22666;DHT22;11499;49.486;11.104;2023-03-01T05:25:08;-1.80;86.50
22666;DHT22;11499;49.486;11.104;2023-03-01T05:27:35;-1.80;86.50
22666;DHT22;11499;49.486;11.104;2023-03-01T05:30:02;-1.80;86.60
22666;DHT22;11499;49.486;11.104;2023-03-01T05:32:39;-1.80;86.70
22666;DHT22;11499;49.486;11.104;2023-03-01T05:35:05;-1.80;86.60
22666;DHT22;11499;49.486;11.104;2023-03-01T05:37:31;-1.80;86.70
22666;DHT22;11499;49.486;11.104;2023-03-01T05:39:56;-1.80;86.70
22666;DHT22;11499;49.486;11.104;2023-03-01T05:42:22;-1.80;86.60
22666;DHT22;11499;49.486;11.104;2023-03-01T05:44:47;-1.80;86.60
22666;DHT22;11499;49.486;11.104;2023-03-01T05:47:13;-1.80;86.70
22666;DHT22;11499;49.486;11.104;2023-03-01T05:52:15;-1.80;86.60
22666;DHT22;11499;49.486;11.104;2023-03-01T05:54:40;-1.80;86.80
22666;DHT22;11499;49.486;11.104;2023-03-01T05:57:06;-1.80;86.70
22666;DHT22;11499;49.486;11.104;2023-03-01T05:59:31;-1.80;86.70
22666;DHT22;11499;49.486;11.104;2023-03-01T06:01:57;-1.70;86.70
22666;DHT22;11499;49.486;11.104;2023-03-01T06:04:22;-1.70;86.70
22666;DHT22;11499;49.486;11.104;2023-03-01T06:06:48;-1.70;86.50
22666;DHT22;11499;49.486;11.104;2023-03-01T06:09:13;-1.60;86.20
22666;DHT22;11499;49.486;11.104;2023-03-01T06:11:39;-1.60;86.20
22666;DHT22;11499;49.486;11.104;2023-03-01T06:14:06;-1.60;86.20
22666;DHT22;11499;49.486;11.104;2023-03-01T06:18:45;-1.60;86.20
22666;DHT22;11499;49.486;11.104;2023-03-01T06:21:11;-1.30;86.50
22666;DHT22;11499;49.486;11.104;2023-03-01T06:23:36;-1.60;86.00
22666;DHT22;11499;49.486;11.104;2023-03-01T06:26:06;-1.50;86.20
22666;DHT22;11499;49.486;11.104;2023-03-01T06:28:32;-1.40;86.90
22666;DHT22;11499;49.486;11.104;2023-03-01T06:30:57;-1.30;85.50
22666;DHT22;11499;49.486;11.104;2023-03-01T06:33:23;-1.30;85.40
22666;DHT22;11499;49.486;11.104;2023-03-01T06:35:50;-1.40;85.00
22666;DHT22;11499;49.486;11.104;2023-03-01T06:38:16;-1.40;85.10
22666;DHT22;11499;49.486;11.104;2023-03-01T06:40:44;-1.30;84.90
22666;DHT22;11499;49.486;11.104;2023-03-01T06:45:46;-1.20;84.80
22666;DHT22;11499;49.486;11.104;2023-03-01T06:48:12;-1.00;85.00
22666;DHT22;11499;49.486;11.104;2023-03-01T06:50:37;-1.10;83.90
22666;DHT22;11499;49.486;11.104;2023-03-01T06:53:03;-1.00;84.00
22666;DHT22;11499;49.486;11.104;2023-03-01T06:55:29;-1.00;83.60
22666;DHT22;11499;49.486;11.104;2023-03-01T06:57:56;-0.90;83.70
22666;DHT22;11499;49.486;11.104;2023-03-01T07:00:23;-0.90;83.50
22666;DHT22;11499;49.486;11.104;2023-03-01T07:02:49;-0.70;83.30
22666;DHT22;11499;49.486;11.104;2023-03-01T07:05:14;-0.60;82.70
22666;DHT22;11499;49.486;11.104;2023-03-01T07:07:40;-0.40;82.20
22666;DHT22;11499;49.486;11.104;2023-03-01T07:12:55;-0.30;82.20
22666;DHT22;11499;49.486;11.104;2023-03-01T07:15:20;-0.20;81.40
22666;DHT22;11499;49.486;11.104;2023-03-01T07:17:46;-0.20;81.20
22666;DHT22;11499;49.486;11.104;2023-03-01T07:20:13;-0.10;81.40
22666;DHT22;11499;49.486;11.104;2023-03-01T07:22:41;-0.10;81.30
22666;DHT22;11499;49.486;11.104;2023-03-01T07:25:08;0.00;80.80
22666;DHT22;11499;49.486;11.104;2023-03-01T07:27:34;0.00;80.70
22666;DHT22;11499;49.486;11.104;2023-03-01T07:30:00;0.10;80.60
22666;DHT22;11499;49.486;11.104;2023-03-01T07:32:25;0.20;80.20
22666;DHT22;11499;49.486;11.104;2023-03-01T07:34:51;0.20;80.40
22666;DHT22;11499;49.486;11.104;2023-03-01T07:37:17;0.40;80.30
22666;DHT22;11499;49.486;11.104;2023-03-01T07:39:42;0.40;79.50
22666;DHT22;11499;49.486;11.104;2023-03-01T07:44:11;0.50;79.70
22666;DHT22;11499;49.486;11.104;2023-03-01T07:46:36;0.30;79.70
22666;DHT22;11499;49.486;11.104;2023-03-01T07:49:02;0.30;79.10
22666;DHT22;11499;49.486;11.104;2023-03-01T07:51:27;0.40;79.50
22666;DHT22;11499;49.486;11.104;2023-03-01T07:53:53;0.50;79.00
22666;DHT22;11499;49.486;11.104;2023-03-01T07:56:18;0.60;78.80
22666;DHT22;11499;49.486;11.104;2023-03-01T07:58:45;0.60;78.60
22666;DHT22;11499;49.486;11.104;2023-03-01T08:01:13;0.70;78.40
22666;DHT22;11499;49.486;11.104;2023-03-01T08:03:39;0.70;77.90
22666;DHT22;11499;49.486;11.104;2023-03-01T08:06:06;0.80;77.80
22666;DHT22;11499;49.486;11.104;2023-03-01T08:11:15;1.00;77.80
22666;DHT22;11499;49.486;11.104;2023-03-01T08:13:42;1.10;76.80
22666;DHT22;11499;49.486;11.104;2023-03-01T08:16:11;1.20;76.60
22666;DHT22;11499;49.486;11.104;2023-03-01T08:18:37;1.20;76.10
22666;DHT22;11499;49.486;11.104;2023-03-01T08:21:10;1.40;76.30
22666;DHT22;11499;49.486;11.104;2023-03-01T08:23:36;1.50;75.50
22666;DHT22;11499;49.486;11.104;2023-03-01T08:26:15;1.80;75.50
22666;DHT22;11499;49.486;11.104;2023-03-01T08:28:42;1.90;75.40
22666;DHT22;11499;49.486;11.104;2023-03-01T08:31:19;2.10;74.10
22666;DHT22;11499;49.486;11.104;2023-03-01T08:33:46;2.10;73.90
22666;DHT22;11499;49.486;11.104;2023-03-01T08:38:15;2.00;74.70
22666;DHT22;11499;49.486;11.104;2023-03-01T08:40:40;2.20;73.70
22666;DHT22;11499;49.486;11.104;2023-03-01T08:43:06;2.10;72.90
22666;DHT22;11499;49.486;11.104;2023-03-01T08:45:31;2.10;72.40
22666;DHT22;11499;49.486;11.104;2023-03-01T08:47:57;2.20;73.60
22666;DHT22;11499;49.486;11.104;2023-03-01T08:50:23;2.40;72.30
22666;DHT22;11499;49.486;11.104;2023-03-01T08:52:49;2.50;72.40
22666;DHT22;11499;49.486;11.104;2023-03-01T08:55:15;2.70;71.80
22666;DHT22;11499;49.486;11.104;2023-03-01T08:57:43;2.80;71.70
22666;DHT22;11499;49.486;11.104;2023-03-01T09:00:09;2.80;71.20
22666;DHT22;11499;49.486;11.104;2023-03-01T09:05:25;3.30;70.20
22666;DHT22;11499;49.486;11.104;2023-03-01T09:07:50;3.40;69.70
22666;DHT22;11499;49.486;11.104;2023-03-01T09:10:16;3.60;69.70
22666;DHT22;11499;49.486;11.104;2023-03-01T09:12:41;3.60;68.70
22666;DHT22;11499;49.486;11.104;2023-03-01T09:15:07;3.10;67.80
22666;DHT22;11499;49.486;11.104;2023-03-01T09:17:33;3.00;68.30
22666;DHT22;11499;49.486;11.104;2023-03-01T09:19:58;3.00;68.30
22666;DHT22;11499;49.486;11.104;2023-03-01T09:22:25;3.00;68.30
22666;DHT22;11499;49.486;11.104;2023-03-01T09:24:50;3.20;68.20
22666;DHT22;11499;49.486;11.104;2023-03-01T09:27:16;3.20;67.20
22666;DHT22;11499;49.486;11.104;2023-03-01T09:29:44;3.40;67.40
22666;DHT22;11499;49.486;11.104;2023-03-01T09:34:06;3.30;67.80
22666;DHT22;11499;49.486;11.104;2023-03-01T09:36:32;3.40;66.90
22666;DHT22;11499;49.486;11.104;2023-03-01T09:38:59;3.50;67.30
22666;DHT22;11499;49.486;11.104;2023-03-01T09:41:46;3.40;66.70
22666;DHT22;11499;49.486;11.104;2023-03-01T09:44:25;3.50;67.10
22666;DHT22;11499;49.486;11.104;2023-03-01T09:46:51;3.60;66.60
22666;DHT22;11499;49.486;11.104;2023-03-01T09:49:29;3.50;66.00
22666;DHT22;11499;49.486;11.104;2023-03-01T09:54:44;4.10;65.90
22666;DHT22;11499;49.486;11.104;2023-03-01T09:57:18;4.40;65.00
22666;DHT22;11499;49.486;11.104;2023-03-01T10:01:35;3.90;64.70
22666;DHT22;11499;49.486;11.104;2023-03-01T10:09:36;4.20;65.60
22666;DHT22;11499;49.486;11.104;2023-03-01T10:12:08;4.30;63.80
22666;DHT22;11499;49.486;11.104;2023-03-01T10:14:57;4.30;64.10
22666;DHT22;11499;49.486;11.104;2023-03-01T10:17:35;4.70;63.60
22666;DHT22;11499;49.486;11.104;2023-03-01T10:20:16;4.70;62.40
22666;DHT22;11499;49.486;11.104;2023-03-01T10:22:42;4.90;62.50
22666;DHT22;11499;49.486;11.104;2023-03-01T10:27:23;4.70;62.60
22666;DHT22;11499;49.486;11.104;2023-03-01T10:30:04;4.80;62.80
22666;DHT22;11499;49.486;11.104;2023-03-01T10:32:32;4.70;62.40
22666;DHT22;11499;49.486;11.104;2023-03-01T10:34:57;4.80;62.30
22666;DHT22;11499;49.486;11.104;2023-03-01T10:37:24;4.90;62.20
22666;DHT22;11499;49.486;11.104;2023-03-01T10:39:57;5.20;62.60
22666;DHT22;11499;49.486;11.104;2023-03-01T10:42:32;5.40;62.60
22666;DHT22;11499;49.486;11.104;2023-03-01T10:45:27;5.50;61.60
22666;DHT22;11499;49.486;11.104;2023-03-01T10:48:18;5.70;62.30
22666;DHT22;11499;49.486;11.104;2023-03-01T10:50:50;6.10;61.40
22666;DHT22;11499;49.486;11.104;2023-03-01T10:54:34;6.10;60.30
22666;DHT22;11499;49.486;11.104;2023-03-01T10:57:01;6.10;61.00
22666;DHT22;11499;49.486;11.104;2023-03-01T10:59:31;5.70;61.50
22666;DHT22;11499;49.486;11.104;2023-03-01T11:04:35;5.50;61.10
22666;DHT22;11499;49.486;11.104;2023-03-01T11:07:01;5.40;61.50
22666;DHT22;11499;49.486;11.104;2023-03-01T11:09:31;5.70;61.40
22666;DHT22;11499;49.486;11.104;2023-03-01T11:12:03;5.90;61.00
22666;DHT22;11499;49.486;11.104;2023-03-01T11:14:36;5.90;60.80
22666;DHT22;11499;49.486;11.104;2023-03-01T11:17:11;5.90;60.50
22666;DHT22;11499;49.486;11.104;2023-03-01T11:21:05;5.90;60.60
22666;DHT22;11499;49.486;11.104;2023-03-01T11:23:34;6.00;59.80
22666;DHT22;11499;49.486;11.104;2023-03-01T11:26:05;6.10;59.60
22666;DHT22;11499;49.486;11.104;2023-03-01T11:28:32;6.40;60.00
22666;DHT22;11499;49.486;11.104;2023-03-01T11:31:08;6.50;59.30
22666;DHT22;11499;49.486;11.104;2023-03-01T11:33:58;6.90;58.60
22666;DHT22;11499;49.486;11.104;2023-03-01T11:39:25;6.80;58.90
22666;DHT22;11499;49.486;11.104;2023-03-01T11:42:04;6.70;59.50
22666;DHT22;11499;49.486;11.104;2023-03-01T11:52:35;6.70;59.70
22666;DHT22;11499;49.486;11.104;2023-03-01T11:55:24;6.70;58.80
22666;DHT22;11499;49.486;11.104;2023-03-01T12:03:51;6.90;58.10
22666;DHT22;11499;49.486;11.104;2023-03-01T12:12:55;7.20;58.30
22666;DHT22;11499;49.486;11.104;2023-03-01T12:18:25;7.20;58.00
22666;DHT22;11499;49.486;11.104;2023-03-01T12:26:35;7.50;58.00
22666;DHT22;11499;49.486;11.104;2023-03-01T12:40:09;7.40;58.60
22666;DHT22;11499;49.486;11.104;2023-03-01T12:45:54;7.80;59.50
22666;DHT22;11499;49.486;11.104;2023-03-01T12:51:08;7.70;59.10
22666;DHT22;11499;49.486;11.104;2023-03-01T12:53:41;7.60;58.80
22666;DHT22;11499;49.486;11.104;2023-03-01T12:56:11;7.60;59.30
22666;DHT22;11499;49.486;11.104;2023-03-01T12:58:51;8.00;59.50
22666;DHT22;11499;49.486;11.104;2023-03-01T13:02:47;8.20;59.00
22666;DHT22;11499;49.486;11.104;2023-03-01T13:10:49;8.10;59.00
22666;DHT22;11499;49.486;11.104;2023-03-01T13:13:23;8.00;59.40
22666;DHT22;11499;49.486;11.104;2023-03-01T13:15:49;8.10;59.20
22666;DHT22;11499;49.486;11.104;2023-03-01T13:28:54;8.30;59.50
22666;DHT22;11499;49.486;11.104;2023-03-01T13:33:55;8.10;60.00
22666;DHT22;11499;49.486;11.104;2023-03-01T13:39:33;8.30;60.90
22666;DHT22;11499;49.486;11.104;2023-03-01T13:44:55;8.70;60.70
22666;DHT22;11499;49.486;11.104;2023-03-01T13:47:20;8.70;60.50
22666;DHT22;11499;49.486;11.104;2023-03-01T13:49:49;8.80;60.30
22666;DHT22;11499;49.486;11.104;2023-03-01T13:54:54;8.60;59.90
22666;DHT22;11499;49.486;11.104;2023-03-01T13:57:24;8.30;60.30
22666;DHT22;11499;49.486;11.104;2023-03-01T13:59:51;8.20;60.50
22666;DHT22;11499;49.486;11.104;2023-03-01T14:02:16;8.30;60.90
22666;DHT22;11499;49.486;11.104;2023-03-01T14:04:42;8.50;60.80
22666;DHT22;11499;49.486;11.104;2023-03-01T14:09:44;8.20;61.30
22666;DHT22;11499;49.486;11.104;2023-03-01T14:15:33;8.40;61.40
22666;DHT22;11499;49.486;11.104;2023-03-01T14:20:46;8.60;61.30
22666;DHT22;11499;49.486;11.104;2023-03-01T14:23:20;8.70;61.90
22666;DHT22;11499;49.486;11.104;2023-03-01T14:25:51;8.50;61.30
22666;DHT22;11499;49.486;11.104;2023-03-01T14:28:21;8.60;61.30
22666;DHT22;11499;49.486;11.104;2023-03-01T14:30:51;8.50;61.90
22666;DHT22;11499;49.486;11.104;2023-03-01T14:33:26;8.40;62.10
22666;DHT22;11499;49.486;11.104;2023-03-01T14:36:00;8.30;62.30
22666;DHT22;11499;49.486;11.104;2023-03-01T14:38:33;8.40;62.50
22666;DHT22;11499;49.486;11.104;2023-03-01T14:41:03;8.30;62.70
22666;DHT22;11499;49.486;11.104;2023-03-01T14:43:30;8.30;62.50
22666;DHT22;11499;49.486;11.104;2023-03-01T14:48:02;8.50;62.80
22666;DHT22;11499;49.486;11.104;2023-03-01T14:50:34;8.50;62.50
22666;DHT22;11499;49.486;11.104;2023-03-01T14:53:03;8.50;62.30
22666;DHT22;11499;49.486;11.104;2023-03-01T14:55:33;8.50;62.80
22666;DHT22;11499;49.486;11.104;2023-03-01T14:58:02;8.40;62.50
22666;DHT22;11499;49.486;11.104;2023-03-01T15:00:30;8.50;62.80
22666;DHT22;11499;49.486;11.104;2023-03-01T15:03:02;8.30;62.40
22666;DHT22;11499;49.486;11.104;2023-03-01T15:05:32;8.20;63.10
22666;DHT22;11499;49.486;11.104;2023-03-01T15:07:59;8.20;63.00
22666;DHT22;11499;49.486;11.104;2023-03-01T15:10:28;8.20;63.20
22666;DHT22;11499;49.486;11.104;2023-03-01T15:12:55;8.20;63.20
22666;DHT22;11499;49.486;11.104;2023-03-01T15:16:48;8.10;63.10
22666;DHT22;11499;49.486;11.104;2023-03-01T15:19:16;8.20;63.50
22666;DHT22;11499;49.486;11.104;2023-03-01T15:21:49;8.00;63.60
22666;DHT22;11499;49.486;11.104;2023-03-01T15:24:23;8.10;63.80
22666;DHT22;11499;49.486;11.104;2023-03-01T15:26:51;8.10;63.70
22666;DHT22;11499;49.486;11.104;2023-03-01T15:29:22;8.20;63.80
22666;DHT22;11499;49.486;11.104;2023-03-01T15:32:03;8.10;63.70
22666;DHT22;11499;49.486;11.104;2023-03-01T15:34:36;8.10;64.20
22666;DHT22;11499;49.486;11.104;2023-03-01T15:37:06;8.10;64.20
22666;DHT22;11499;49.486;11.104;2023-03-01T15:42:48;8.00;64.20
22666;DHT22;11499;49.486;11.104;2023-03-01T15:47:51;8.20;64.40
22666;DHT22;11499;49.486;11.104;2023-03-01T15:50:27;7.90;64.20
22666;DHT22;11499;49.486;11.104;2023-03-01T15:52:54;7.90;64.50
22666;DHT22;11499;49.486;11.104;2023-03-01T15:55:25;7.90;64.90
22666;DHT22;11499;49.486;11.104;2023-03-01T15:58:24;7.90;65.00
22666;DHT22;11499;49.486;11.104;2023-03-01T16:00:51;7.90;65.00
22666;DHT22;11499;49.486;11.104;2023-03-01T16:03:21;7.80;65.00
22666;DHT22;11499;49.486;11.104;2023-03-01T16:08:39;7.80;65.00
22666;DHT22;11499;49.486;11.104;2023-03-01T16:11:13;7.70;65.20
22666;DHT22;11499;49.486;11.104;2023-03-01T16:13:39;7.70;65.60
22666;DHT22;11499;49.486;11.104;2023-03-01T16:16:04;7.70;65.70
22666;DHT22;11499;49.486;11.104;2023-03-01T16:18:30;7.60;65.80
22666;DHT22;11499;49.486;11.104;2023-03-01T16:20:55;7.50;65.80
22666;DHT22;11499;49.486;11.104;2023-03-01T16:23:21;7.40;66.00
22666;DHT22;11499;49.486;11.104;2023-03-01T16:25:50;7.30;65.80
22666;DHT22;11499;49.486;11.104;2023-03-01T16:28:15;7.30;66.00
22666;DHT22;11499;49.486;11.104;2023-03-01T16:30:46;7.20;66.10
22666;DHT22;11499;49.486;11.104;2023-03-01T16:33:12;7.10;66.20
22666;DHT22;11499;49.486;11.104;2023-03-01T16:35:40;7.00;66.40
22666;DHT22;11499;49.486;11.104;2023-03-01T16:40:25;7.00;66.70
22666;DHT22;11499;49.486;11.104;2023-03-01T16:42:52;6.80;67.00
22666;DHT22;11499;49.486;11.104;2023-03-01T16:45:19;6.70;67.10
22666;DHT22;11499;49.486;11.104;2023-03-01T16:47:44;6.70;67.50
22666;DHT22;11499;49.486;11.104;2023-03-01T16:50:11;6.70;67.50
22666;DHT22;11499;49.486;11.104;2023-03-01T16:52:36;6.50;67.70
22666;DHT22;11499;49.486;11.104;2023-03-01T16:55:03;6.50;67.70
22666;DHT22;11499;49.486;11.104;2023-03-01T16:57:30;6.50;68.10
22666;DHT22;11499;49.486;11.104;2023-03-01T16:59:55;6.40;68.10
22666;DHT22;11499;49.486;11.104;2023-03-01T17:02:21;6.40;68.20
22666;DHT22;11499;49.486;11.104;2023-03-01T17:07:24;6.30;68.40
22666;DHT22;11499;49.486;11.104;2023-03-01T17:09:49;6.20;68.70
22666;DHT22;11499;49.486;11.104;2023-03-01T17:12:16;6.10;68.90
22666;DHT22;11499;49.486;11.104;2023-03-01T17:14:42;6.10;69.10
22666;DHT22;11499;49.486;11.104;2023-03-01T17:17:08;6.00;69.30
22666;DHT22;11499;49.486;11.104;2023-03-01T17:19:34;6.00;69.50
22666;DHT22;11499;49.486;11.104;2023-03-01T17:22:02;5.90;69.50
22666;DHT22;11499;49.486;11.104;2023-03-01T17:24:27;5.80;69.70
22666;DHT22;11499;49.486;11.104;2023-03-01T17:26:54;5.70;70.00
22666;DHT22;11499;49.486;11.104;2023-03-01T17:29:20;5.70;70.30
22666;DHT22;11499;49.486;11.104;2023-03-01T17:34:18;5.60;70.50
22666;DHT22;11499;49.486;11.104;2023-03-01T17:36:44;5.50;70.70
22666;DHT22;11499;49.486;11.104;2023-03-01T17:39:11;5.40;70.80
22666;DHT22;11499;49.486;11.104;2023-03-01T17:41:36;5.40;70.90
22666;DHT22;11499;49.486;11.104;2023-03-01T17:44:02;5.30;71.00
22666;DHT22;11499;49.486;11.104;2023-03-01T17:46:27;5.30;71.20
22666;DHT22;11499;49.486;11.104;2023-03-01T17:48:53;5.30;71.20
22666;DHT22;11499;49.486;11.104;2023-03-01T17:51:19;5.20;71.30
22666;DHT22;11499;49.486;11.104;2023-03-01T17:53:44;5.10;71.40
22666;DHT22;11499;49.486;11.104;2023-03-01T17:56:10;5.10;71.40
22666;DHT22;11499;49.486;11.104;2023-03-01T18:01:19;5.10;71.60
22666;DHT22;11499;49.486;11.104;2023-03-01T18:03:45;5.00;71.70
22666;DHT22;11499;49.486;11.104;2023-03-01T18:06:19;5.00;71.80
22666;DHT22;11499;49.486;11.104;2023-03-01T18:08:45;4.90;71.90
22666;DHT22;11499;49.486;11.104;2023-03-01T18:11:12;4.80;71.90
22666;DHT22;11499;49.486;11.104;2023-03-01T18:13:39;4.80;72.30
22666;DHT22;11499;49.486;11.104;2023-03-01T18:16:10;4.80;72.40
22666;DHT22;11499;49.486;11.104;2023-03-01T18:18:36;4.70;72.60
22666;DHT22;11499;49.486;11.104;2023-03-01T18:21:02;4.60;72.70
22666;DHT22;11499;49.486;11.104;2023-03-01T18:23:29;4.60;72.90
22666;DHT22;11499;49.486;11.104;2023-03-01T18:28:43;4.50;73.00
22666;DHT22;11499;49.486;11.104;2023-03-01T18:31:12;4.40;73.20
22666;DHT22;11499;49.486;11.104;2023-03-01T18:33:38;4.40;73.30
22666;DHT22;11499;49.486;11.104;2023-03-01T18:36:05;4.30;73.40
22666;DHT22;11499;49.486;11.104;2023-03-01T18:38:31;4.20;73.40
22666;DHT22;11499;49.486;11.104;2023-03-01T18:40:57;4.20;73.60